Time;durP1;ratioP1;P1;durP2;ratioP2;P2;SDS_P1;SDS_P2;PMS_P1;PMS_P2;Temp;Humidity;BMP_temperature;BMP_pressure;BME280_temperature;BME280_humidity;BME280_pressure;Samples;Min_cycle;Max_cycle;Signal;HPM_P1;HPM_P2
2023/09/15 00:00:24;;;;;;;9.75;7.00;;;;;;;14.43;100.00;96233.72;1026360;28;20054;-72
2023/09/15 00:00:55;;;;;;;11.75;7.70;;;;;;;14.46;100.00;96238.47;1034269;28;20050;-73
2023/09/15 00:01:25;;;;;;;9.52;7.13;;;;;;;14.45;100.00;96239.50;1038142;28;20018;-74
2023/09/15 00:01:56;;;;;;;10.32;7.10;;;;;;;14.42;100.00;96232.13;1042494;28;20613;-73
2023/09/15 00:02:26;;;;;;;11.10;7.20;;;;;;;14.44;100.00;96240.56;1042468;28;20106;-74
2023/09/15 00:02:58;;;;;;;10.27;6.88;;;;;;;14.43;100.00;96233.72;1038131;28;20481;-74
2023/09/15 00:03:28;;;;;;;10.48;7.10;;;;;;;14.41;100.00;96241.13;1042504;28;20417;-73
2023/09/15 00:04:02;;;;;;;10.77;6.75;;;;;;;14.39;100.00;96236.13;1038564;28;20021;-75
2023/09/15 00:04:33;;;;;;;10.93;6.97;;;;;;;14.38;100.00;96232.69;1038968;28;20147;-73
2023/09/15 00:05:04;;;;;;;10.30;7.10;;;;;;;14.38;100.00;96240.63;1038113;28;20041;-74
2023/09/15 00:05:37;;;;;;;11.38;7.20;;;;;;;14.38;100.00;96237.16;1034400;28;20018;-75
2023/09/15 00:06:08;;;;;;;10.13;7.00;;;;;;;14.38;100.00;96232.69;1038271;28;20116;-73
2023/09/15 00:06:39;;;;;;;11.18;6.78;;;;;;;14.32;100.00;96230.38;1046503;28;20045;-75
2023/09/15 00:07:09;;;;;;;13.20;7.63;;;;;;;14.36;100.00;96245.38;1046522;28;20032;-73
2023/09/15 00:07:40;;;;;;;12.60;7.30;;;;;;;14.35;100.00;96238.53;1042638;28;20408;-73
2023/09/15 00:08:10;;;;;;;10.30;7.15;;;;;;;14.34;100.00;96236.94;1042279;28;20033;-73
2023/09/15 00:08:41;;;;;;;12.52;7.63;;;;;;;14.26;100.00;96226.97;1042643;28;20041;-75
2023/09/15 00:09:14;;;;;;;11.02;6.97;;;;;;;14.24;100.00;96231.72;1046478;28;20027;-74
2023/09/15 00:09:45;;;;;;;9.27;7.05;;;;;;;14.33;100.00;96245.13;1042752;28;20940;-73
2023/09/15 00:10:15;;;;;;;12.25;7.05;;;;;;;14.27;100.00;96241.72;1041982;28;20013;-73
2023/09/15 00:10:47;;;;;;;10.70;7.45;;;;;;;14.31;100.00;96242.75;1034332;28;20021;-73
2023/09/15 00:11:19;;;;;;;13.90;7.25;;;;;;;14.25;100.00;96233.31;1026405;28;20538;-75
2023/09/15 00:11:50;;;;;;;11.35;6.60;;;;;;;14.30;100.00;96250.97;1038319;28;20026;-74
2023/09/15 00:12:21;;;;;;;11.18;6.75;;;;;;;14.28;100.00;96245.16;1039124;28;20022;-73
2023/09/15 00:12:51;;;;;;;11.82;7.18;;;;;;;14.26;100.00;96240.16;1034712;28;20064;-76
2023/09/15 00:13:22;;;;;;;9.88;6.00;;;;;;;14.27;100.00;96246.22;1033991;28;20096;-72
2023/09/15 00:13:52;;;;;;;12.45;7.05;;;;;;;14.25;100.00;96249.16;1034321;28;20022;-74
2023/09/15 00:14:23;;;;;;;9.73;6.57;;;;;;;14.25;100.00;96243.88;1034404;28;20025;-71
2023/09/15 00:14:54;;;;;;;10.50;6.65;;;;;;;14.25;100.00;96249.16;1034305;28;20029;-75
2023/09/15 00:15:25;;;;;;;10.93;6.93;;;;;;;14.23;100.00;96240.69;1034412;28;20086;-75
2023/09/15 00:15:56;;;;;;;11.10;6.90;;;;;;;14.21;100.00;96237.53;1038621;28;20022;-75
2023/09/15 00:16:27;;;;;;;10.93;6.85;;;;;;;14.23;100.00;96240.69;1038846;28;20560;-74
2023/09/15 00:16:57;;;;;;;10.27;6.65;;;;;;;14.24;100.00;96244.13;1034312;28;20021;-76
2023/09/15 00:17:28;;;;;;;11.02;7.10;;;;;;;14.22;100.00;96244.41;1026218;28;20049;-74
2023/09/15 00:17:59;;;;;;;9.95;7.03;;;;;;;14.23;100.00;96240.69;1030287;28;20018;-76
2023/09/15 00:18:29;;;;;;;10.13;7.03;;;;;;;14.20;100.00;96249.16;1037664;28;20021;-75
2023/09/15 00:19:00;;;;;;;10.40;7.00;;;;;;;14.20;100.00;96243.88;1046786;28;20406;-74
2023/09/15 00:19:31;;;;;;;10.27;6.88;;;;;;;14.18;100.00;96248.63;1042203;28;20021;-74
2023/09/15 00:20:08;;;;;;;10.48;7.32;;;;;;;14.19;100.00;96244.16;1033900;28;20021;-73
2023/09/15 00:20:40;;;;;;;13.52;6.57;;;;;;;14.12;100.00;96233.91;1034355;28;20026;-74
2023/09/15 00:21:11;;;;;;;10.80;7.35;;;;;;;14.14;100.00;96237.06;1038113;28;20493;-73
2023/09/15 00:21:42;;;;;;;9.82;6.80;;;;;;;14.10;100.00;96231.53;1031755;28;20452;-73
2023/09/15 00:22:13;;;;;;;13.20;6.82;;;;;;;14.08;100.00;96232.84;1038420;28;20021;-73
2023/09/15 00:22:49;;;;;;;9.80;7.00;;;;;;;14.07;100.00;96231.28;1042423;28;20025;-75
2023/09/15 00:23:19;;;;;;;8.77;6.18;;;;;;;14.12;100.00;96239.97;1035480;28;20883;-76
2023/09/15 00:23:50;;;;;;;10.38;6.65;;;;;;;14.14;100.00;96239.69;1029978;28;20022;-74
2023/09/15 00:24:21;;;;;;;11.68;7.32;;;;;;;14.10;100.00;96242.09;1030221;28;20387;-75
2023/09/15 00:24:52;;;;;;;9.90;6.55;;;;;;;14.09;100.00;96245.78;1026104;28;20022;-73
2023/09/15 00:25:27;;;;;;;8.98;6.93;;;;;;;14.08;100.00;96243.41;1026005;28;20034;-73
2023/09/15 00:26:01;;;;;;;10.75;7.22;;;;;;;14.07;100.00;96239.97;1026943;28;20018;-75
2023/09/15 00:26:32;;;;;;;12.52;7.63;;;;;;;14.07;100.00;96239.97;1032655;28;20022;-75
2023/09/15 00:27:02;;;;;;;10.10;7.05;;;;;;;14.06;100.00;96240.28;1036617;28;20755;-74
2023/09/15 00:27:33;;;;;;;13.48;7.22;;;;;;;14.06;100.00;96241.06;1034965;28;20054;-76
2023/09/15 00:28:04;;;;;;;14.07;7.78;;;;;;;14.07;100.00;96241.84;1042177;28;20035;-75
2023/09/15 00:28:36;;;;;;;9.65;6.95;;;;;;;14.02;100.00;96228.69;1039967;28;20028;-74
2023/09/15 00:29:07;;;;;;;10.05;7.13;;;;;;;14.04;100.00;96237.09;1034913;28;20629;-75
2023/09/15 00:29:38;;;;;;;10.57;6.90;;;;;;;14.01;100.00;96232.38;1037811;28;20116;-76
2023/09/15 00:30:09;;;;;;;11.02;7.20;;;;;;;14.04;100.00;96242.38;1034536;28;20370;-75
2023/09/15 00:30:39;;;;;;;10.68;7.07;;;;;;;13.96;100.00;96227.13;1038873;28;20060;-75
2023/09/15 00:31:10;;;;;;;13.98;8.20;;;;;;;13.99;100.00;96230.00;1038248;28;20396;-74
2023/09/15 00:31:41;;;;;;;10.02;6.70;;;;;;;14.01;100.00;96229.72;1038536;28;20480;-74
2023/09/15 00:32:11;;;;;;;8.80;6.43;;;;;;;13.94;100.00;96229.25;1038250;28;20020;-75
2023/09/15 00:32:42;;;;;;;9.90;7.25;;;;;;;13.98;100.00;96235.53;1042694;28;20868;-75
2023/09/15 00:33:13;;;;;;;11.77;7.45;;;;;;;13.95;100.00;96228.16;1038398;28;20029;-75
2023/09/15 00:33:43;;;;;;;12.30;7.32;;;;;;;13.94;100.00;96231.88;1030066;28;20042;-75
2023/09/15 00:34:14;;;;;;;9.90;7.28;;;;;;;13.95;100.00;96238.72;1034200;28;20022;-75
2023/09/15 00:34:45;;;;;;;9.02;6.85;;;;;;;13.90;100.00;96226.34;1034626;28;20044;-73
2023/09/15 00:35:18;;;;;;;11.65;7.43;;;;;;;13.94;100.00;96237.16;1035859;28;20591;-74
2023/09/15 00:35:48;;;;;;;9.48;7.15;;;;;;;13.91;100.00;96233.97;1037796;28;20021;-75
2023/09/15 00:36:19;;;;;;;11.23;7.72;;;;;;;13.91;100.00;96233.97;1034201;28;20481;-74
2023/09/15 00:36:49;;;;;;;12.48;7.35;;;;;;;13.91;100.00;96233.19;1034758;28;20022;-74
2023/09/15 00:37:20;;;;;;;11.30;6.97;;;;;;;13.86;100.00;96228.75;1038497;28;20022;-76
2023/09/15 00:37:51;;;;;;;13.27;8.10;;;;;;;13.86;100.00;96227.97;1046547;28;20090;-76
2023/09/15 00:38:21;;;;;;;11.98;7.43;;;;;;;13.89;100.00;96232.69;1046359;28;20021;-75
2023/09/15 00:38:52;;;;;;;11.35;8.18;;;;;;;13.77;100.00;96209.25;1035100;28;20026;-74
2023/09/15 00:39:24;;;;;;;13.00;7.68;;;;;;;13.88;100.00;96234.56;1034108;28;20022;-74
2023/09/15 00:39:55;;;;;;;13.60;7.97;;;;;;;13.88;100.00;96239.00;1034331;28;20125;-74
2023/09/15 00:40:25;;;;;;;10.57;6.90;;;;;;;13.86;100.00;96236.66;1040190;28;20432;-75
2023/09/15 00:40:58;;;;;;;11.20;7.60;;;;;;;13.86;100.00;96236.66;1046300;28;20094;-76
2023/09/15 00:41:29;;;;;;;12.68;7.28;;;;;;;13.78;100.00;96217.97;1042251;28;20021;-73
2023/09/15 00:41:59;;;;;;;11.95;7.10;;;;;;;13.84;100.00;96228.22;1043820;28;20227;-74
2023/09/15 00:42:30;;;;;;;9.95;7.28;;;;;;;13.79;100.00;96220.34;1046396;28;20028;-74
2023/09/15 00:43:00;;;;;;;15.70;7.35;;;;;;;13.83;100.00;96226.66;1038404;28;20052;-75
2023/09/15 00:43:31;;;;;;;12.38;7.53;;;;;;;13.82;100.00;96230.34;1038316;28;20543;-75
2023/09/15 00:44:01;;;;;;;12.45;7.25;;;;;;;13.81;100.00;96226.13;1030898;28;20022;-74
2023/09/15 00:44:32;;;;;;;10.95;7.53;;;;;;;13.81;100.00;96236.66;1034537;28;20065;-75
2023/09/15 00:45:05;;;;;;;11.60;7.78;;;;;;;13.75;100.00;96221.94;1046672;28;20021;-74
2023/09/15 00:45:36;;;;;;;10.77;7.03;;;;;;;13.75;100.00;96234.31;1042532;28;20028;-75
2023/09/15 00:46:06;;;;;;;11.23;7.75;;;;;;;13.78;100.00;96229.31;1033286;28;20358;-75
2023/09/15 00:46:37;;;;;;;11.60;7.45;;;;;;;13.76;100.00;96231.44;1026894;28;20019;-74
2023/09/15 00:47:07;;;;;;;11.07;7.50;;;;;;;13.78;100.00;96229.31;1036975;28;20460;-75
2023/09/15 00:47:38;;;;;;;10.68;7.28;;;;;;;13.77;100.00;96230.38;1039150;28;20017;-75
2023/09/15 00:48:08;;;;;;;10.13;7.10;;;;;;;13.72;100.00;96225.13;1038906;28;20014;-75
2023/09/15 00:48:39;;;;;;;10.73;7.32;;;;;;;13.77;100.00;96240.13;1043113;28;20021;-74
2023/09/15 00:49:10;;;;;;;12.18;8.20;;;;;;;13.70;100.00;96224.59;1038814;28;20024;-74
2023/09/15 00:49:40;;;;;;;11.13;7.65;;;;;;;13.76;100.00;96231.44;1042169;28;20059;-75
2023/09/15 00:50:13;;;;;;;11.40;7.68;;;;;;;13.76;100.00;96231.44;1037715;28;20018;-74
2023/09/15 00:50:44;;;;;;;10.35;7.60;;;;;;;13.68;100.00;96224.88;1042347;28;20025;-75
2023/09/15 00:51:14;;;;;;;11.25;7.78;;;;;;;13.66;100.00;96226.19;1043205;28;20028;-74
2023/09/15 00:51:45;;;;;;;11.20;7.93;;;;;;;13.68;100.00;96234.63;1034796;28;20030;-74
2023/09/15 00:52:16;;;;;;;12.18;7.88;;;;;;;13.65;100.00;96225.41;1038994;28;20052;-75
2023/09/15 00:52:50;;;;;;;12.32;7.97;;;;;;;13.71;100.00;96233.28;1030733;28;20022;-74
2023/09/15 00:53:20;;;;;;;12.75;7.63;;;;;;;13.70;100.00;96227.22;1031592;28;20785;-75
2023/09/15 00:53:51;;;;;;;11.18;7.70;;;;;;;13.68;100.00;96229.34;1027369;28;20030;-76
2023/09/15 00:54:21;;;;;;;11.90;8.23;;;;;;;13.66;100.00;96231.47;1034832;28;20009;-74
2023/09/15 00:54:52;;;;;;;12.52;7.75;;;;;;;13.67;100.00;96233.03;1034789;28;20029;-75
2023/09/15 00:55:22;;;;;;;12.38;8.20;;;;;;;13.66;100.00;96228.84;1034807;28;20014;-76
2023/09/15 00:55:53;;;;;;;11.80;8.35;;;;;;;13.61;100.00;96228.84;1037998;28;20184;-75
2023/09/15 00:56:24;;;;;;;11.07;7.43;;;;;;;13.59;100.00;96217.78;1034955;28;20509;-75
2023/09/15 00:56:56;;;;;;;10.20;7.43;;;;;;;13.63;100.00;96232.00;1038879;28;20047;-75
2023/09/15 00:57:26;;;;;;;12.15;8.02;;;;;;;13.63;100.00;96227.53;1042946;28;20017;-76
2023/09/15 00:57:57;;;;;;;11.85;7.32;;;;;;;13.63;100.00;96232.00;1034825;28;20018;-75
2023/09/15 00:58:28;;;;;;;12.20;8.05;;;;;;;13.55;100.00;96214.91;1035003;28;20128;-74
2023/09/15 00:59:00;;;;;;;12.23;7.60;;;;;;;13.60;100.00;96233.31;1038849;28;20025;-75
2023/09/15 00:59:31;;;;;;;11.65;7.88;;;;;;;13.54;100.00;96225.69;1043206;28;20460;-75
2023/09/15 01:00:02;;;;;;;13.13;8.45;;;;;;;13.57;100.00;96228.59;1046778;28;20016;-74
2023/09/15 01:00:32;;;;;;;11.02;8.27;;;;;;;13.57;100.00;96220.69;1047270;28;20031;-75
2023/09/15 01:01:06;;;;;;;10.43;7.32;;;;;;;13.56;100.00;96226.22;1046846;28;20032;-75
2023/09/15 01:01:39;;;;;;;10.65;7.35;;;;;;;13.56;100.00;96231.50;1038955;28;20388;-76
2023/09/15 01:02:10;;;;;;;10.80;7.55;;;;;;;13.52;100.00;96227.84;1035235;28;20010;-74
2023/09/15 01:02:43;;;;;;;12.82;7.45;;;;;;;13.49;100.00;96225.72;1035027;28;20488;-76
2023/09/15 01:03:20;;;;;;;9.18;6.57;;;;;;;13.52;100.00;96225.19;1030591;28;20014;-76
2023/09/15 01:03:52;;;;;;;11.70;7.28;;;;;;;13.51;100.00;96227.03;1034940;28;20022;-75
2023/09/15 01:04:23;;;;;;;10.60;7.72;;;;;;;13.50;100.00;96228.09;1038974;28;20051;-75
2023/09/15 01:04:54;;;;;;;12.75;7.78;;;;;;;13.52;100.00;96230.47;1040118;28;20479;-75
2023/09/15 01:05:24;;;;;;;11.45;6.97;;;;;;;13.51;100.00;96228.88;1042907;28;20599;-76
2023/09/15 01:05:55;;;;;;;11.05;8.02;;;;;;;13.46;100.00;96226.28;1030126;28;20026;-76
2023/09/15 01:06:25;;;;;;;12.77;8.07;;;;;;;13.48;100.00;96229.41;1034859;28;20527;-75
2023/09/15 01:06:56;;;;;;;10.55;7.70;;;;;;;13.41;100.00;96213.88;1026970;28;20040;-74
2023/09/15 01:07:26;;;;;;;10.88;7.35;;;;;;;13.47;100.00;96228.63;1034701;28;20022;-76
2023/09/15 01:07:57;;;;;;;12.35;7.85;;;;;;;13.45;100.00;96225.47;1038789;28;20018;-74
2023/09/15 01:08:27;;;;;;;11.15;7.43;;;;;;;13.48;100.00;96234.69;1038842;28;20018;-75
2023/09/15 01:08:58;;;;;;;16.10;8.48;;;;;;;13.46;100.00;96231.53;1034160;28;20045;-75
2023/09/15 01:09:29;;;;;;;12.90;8.70;;;;;;;13.47;100.00;96231.25;1046869;28;20083;-74
2023/09/15 01:10:00;;;;;;;12.07;7.70;;;;;;;13.44;100.00;96229.94;1042972;28;20028;-75
2023/09/15 01:10:30;;;;;;;10.75;8.10;;;;;;;13.44;100.00;96229.94;1034947;28;20022;-75
2023/09/15 01:11:04;;;;;;;12.32;8.35;;;;;;;13.44;100.00;96227.31;1034962;28;20022;-76
2023/09/15 01:11:34;;;;;;;13.73;8.45;;;;;;;13.43;100.00;96225.75;1037455;28;20493;-75
2023/09/15 01:12:07;;;;;;;11.05;7.90;;;;;;;13.41;100.00;96224.41;1035312;28;20014;-75
2023/09/15 01:12:38;;;;;;;13.38;8.77;;;;;;;13.33;100.00;96212.59;1039063;28;20064;-75
2023/09/15 01:13:08;;;;;;;12.20;7.82;;;;;;;13.35;100.00;96218.41;1035864;28;20587;-77
2023/09/15 01:13:38;;;;;;;13.40;9.52;;;;;;;13.31;100.00;96217.34;1038752;28;20029;-75
2023/09/15 01:14:09;;;;;;;12.32;8.30;;;;;;;13.38;100.00;96223.13;1033391;28;20027;-74
2023/09/15 01:14:39;;;;;;;16.77;8.13;;;;;;;13.39;100.00;96224.69;1035023;28;20029;-75
2023/09/15 01:15:10;;;;;;;11.80;8.25;;;;;;;13.33;100.00;96223.13;1038710;28;20026;-74
2023/09/15 01:15:51;;;;;;;14.27;8.57;;;;;;;13.36;100.00;96227.88;1030721;28;20078;-75
2023/09/15 01:16:35;;;;;;;11.50;7.68;;;;;;;13.28;100.00;96215.25;1034860;28;20547;-77
2023/09/15 01:17:32;;;;;;;14.18;8.57;;;;;;;13.36;100.00;96227.88;1030840;28;20029;-76
2023/09/15 01:18:26;;;;;;;13.23;8.27;;;;;;;13.35;100.00;96226.31;1033342;28;20567;-75
2023/09/15 01:19:31;;;;;;;10.65;7.40;;;;;;;13.33;100.00;96224.97;1045354;28;20286;-75
2023/09/15 01:20:37;;;;;;;15.32;8.77;;;;;;;13.32;100.00;96224.19;1040055;28;20065;-75
2023/09/15 01:21:26;;;;;;;16.10;8.27;;;;;;;13.30;100.00;96223.66;1032555;28;20088;-75
2023/09/15 01:22:27;;;;;;;13.27;8.43;;;;;;;13.28;100.00;96219.72;1044730;28;20017;-75
2023/09/15 01:23:39;;;;;;;11.93;7.60;;;;;;;13.23;100.00;96217.84;1041422;28;20018;-75
2023/09/15 01:24:30;;;;;;;12.68;8.13;;;;;;;13.06;100.00;96185.75;1038685;28;20029;-75
2023/09/15 01:25:39;;;;;;;12.40;7.78;;;;;;;13.24;100.00;96222.09;1042937;28;20020;-75
2023/09/15 01:26:28;;;;;;;13.30;7.05;;;;;;;13.17;100.00;96221.56;1034872;28;20010;-75
2023/09/15 01:27:30;;;;;;;10.60;7.57;;;;;;;13.19;100.00;96227.34;1035707;28;20022;-73
2023/09/15 01:28:31;;;;;;;13.93;8.27;;;;;;;13.16;100.00;96223.41;1033187;28;20022;-74
2023/09/15 01:29:19;;;;;;;12.18;8.65;;;;;;;13.15;100.00;96223.69;1030673;28;20406;-75
2023/09/15 01:29:54;;;;;;;18.55;9.45;;;;;;;13.13;100.00;96223.16;1034535;28;20497;-76
2023/09/15 01:30:24;;;;;;;12.75;7.95;;;;;;;13.06;100.00;96218.16;1046857;28;20123;-76
2023/09/15 01:30:55;;;;;;;15.70;9.13;;;;;;;13.12;100.00;96224.22;1039115;28;20021;-75
2023/09/15 01:31:25;;;;;;;14.20;8.05;;;;;;;13.09;100.00;96224.75;1035001;28;20029;-74
2023/09/15 01:31:56;;;;;;;13.50;8.05;;;;;;;13.01;100.00;96214.72;1032633;28;20014;-74
2023/09/15 01:32:27;;;;;;;15.55;8.82;;;;;;;13.06;100.00;96218.16;1042986;28;20047;-76
2023/09/15 01:32:57;;;;;;;13.55;8.32;;;;;;;13.00;100.00;96213.94;1038894;28;20017;-76
2023/09/15 01:33:28;;;;;;;13.93;8.75;;;;;;;13.02;100.00;96216.31;1038811;28;20018;-75
2023/09/15 01:33:59;;;;;;;13.27;8.75;;;;;;;13.06;100.00;96225.28;1038882;28;20720;-75
2023/09/15 01:34:29;;;;;;;12.38;8.40;;;;;;;13.05;100.00;96221.84;1038889;28;20037;-75
2023/09/15 01:35:02;;;;;;;12.95;8.55;;;;;;;13.06;100.00;96223.41;1038868;28;20076;-74
2023/09/15 01:35:32;;;;;;;12.88;7.93;;;;;;;13.07;100.00;96229.47;1039430;28;20026;-75
2023/09/15 01:36:03;;;;;;;10.88;8.00;;;;;;;13.04;100.00;96211.56;1042971;28;20025;-74
2023/09/15 01:36:34;;;;;;;11.57;7.97;;;;;;;13.06;100.00;96220.78;1038853;28;20100;-74
2023/09/15 01:37:04;;;;;;;12.70;8.52;;;;;;;13.05;100.00;96215.78;1038554;28;20025;-75
2023/09/15 01:37:35;;;;;;;12.27;8.45;;;;;;;13.05;100.00;96227.13;1030612;28;20023;-74
2023/09/15 01:38:05;;;;;;;19.15;8.57;;;;;;;13.06;100.00;96218.16;1030718;28;20382;-75
2023/09/15 01:38:36;;;;;;;15.10;8.55;;;;;;;13.03;100.00;96217.91;1023245;28;20019;-75
2023/09/15 01:39:06;;;;;;;14.73;8.43;;;;;;;13.04;100.00;96220.25;1030349;28;20030;-75
2023/09/15 01:39:37;;;;;;;12.23;8.32;;;;;;;13.04;100.00;96219.47;1034689;28;20489;-74
2023/09/15 01:40:08;;;;;;;12.10;7.82;;;;;;;12.99;100.00;96207.09;1034110;28;20026;-74
2023/09/15 01:40:38;;;;;;;16.60;8.80;;;;;;;13.03;100.00;96218.69;1034628;28;20101;-76
2023/09/15 01:41:09;;;;;;;15.45;8.93;;;;;;;13.03;100.00;96217.91;1030536;28;20064;-74
2023/09/15 01:41:39;;;;;;;11.70;7.75;;;;;;;13.02;100.00;96222.38;1034883;28;20022;-75
2023/09/15 01:42:09;;;;;;;15.25;8.30;;;;;;;13.01;100.00;96220.00;1038591;28;20568;-74
2023/09/15 01:42:42;;;;;;;13.43;8.32;;;;;;;12.98;100.00;96210.81;1038967;28;20029;-74
2023/09/15 01:43:13;;;;;;;13.48;8.30;;;;;;;12.98;100.00;96214.22;1030714;28;20036;-74
2023/09/15 01:43:43;;;;;;;15.30;8.35;;;;;;;12.95;100.00;96214.75;1038733;28;20021;-74
2023/09/15 01:44:14;;;;;;;12.57;8.73;;;;;;;12.97;100.00;96220.53;1038860;28;20017;-75
2023/09/15 01:44:44;;;;;;;12.38;8.23;;;;;;;12.92;100.00;96211.84;1038780;28;20497;-75
2023/09/15 01:45:15;;;;;;;13.00;8.35;;;;;;;12.92;100.00;96212.63;1030675;28;20050;-75
2023/09/15 01:45:45;;;;;;;19.23;8.88;;;;;;;12.97;100.00;96217.88;1034364;28;20025;-75
2023/09/15 01:46:15;;;;;;;11.40;8.25;;;;;;;12.95;100.00;96216.59;1030897;28;20438;-75
2023/09/15 01:46:46;;;;;;;11.60;7.95;;;;;;;12.92;100.00;96217.91;1030613;28;20023;-75
2023/09/15 01:47:20;;;;;;;14.82;8.82;;;;;;;12.92;100.00;96211.84;1032779;28;20729;-74
2023/09/15 01:47:50;;;;;;;14.48;7.97;;;;;;;12.92;100.00;96210.00;1038806;28;20159;-75
2023/09/15 01:48:22;;;;;;;17.15;8.27;;;;;;;12.97;100.00;96215.25;1042849;28;20095;-74
2023/09/15 01:48:56;;;;;;;17.67;8.43;;;;;;;12.96;100.00;96216.31;1034725;28;20124;-75
2023/09/15 01:49:26;;;;;;;14.30;8.73;;;;;;;12.93;100.00;96219.47;1030378;28;20015;-74
2023/09/15 01:49:57;;;;;;;15.75;9.07;;;;;;;12.93;100.00;96213.44;1025951;28;20014;-74
2023/09/15 01:50:28;;;;;;;12.75;7.65;;;;;;;12.93;100.00;96219.47;1030977;28;20014;-75
2023/09/15 01:50:59;;;;;;;12.77;8.20;;;;;;;12.93;100.00;96216.06;1034685;28;20014;-75
2023/09/15 01:51:30;;;;;;;11.15;8.23;;;;;;;12.93;100.00;96218.69;1038450;28;20017;-76
2023/09/15 01:52:01;;;;;;;12.57;9.07;;;;;;;12.89;100.00;96213.16;1026552;28;20021;-74
2023/09/15 01:52:31;;;;;;;12.60;7.88;;;;;;;12.90;100.00;96224.50;1038561;28;20032;-74
2023/09/15 01:53:04;;;;;;;15.20;8.15;;;;;;;12.90;100.00;96209.47;1034681;28;20045;-75
2023/09/15 01:53:36;;;;;;;15.75;9.02;;;;;;;12.92;100.00;96215.28;1034607;28;20046;-74
2023/09/15 01:54:06;;;;;;;12.88;7.97;;;;;;;12.89;100.00;96207.91;1035462;28;20045;-76
2023/09/15 01:54:37;;;;;;;13.65;8.00;;;;;;;12.86;100.00;96203.16;1038808;28;20088;-74
2023/09/15 01:55:08;;;;;;;13.02;8.63;;;;;;;12.90;100.00;96209.47;1030497;28;20862;-76
2023/09/15 01:55:38;;;;;;;14.43;8.85;;;;;;;12.86;100.00;96207.63;1035656;28;20026;-75
2023/09/15 01:56:09;;;;;;;15.55;9.25;;;;;;;12.86;100.00;96208.44;1030595;28;20426;-76
2023/09/15 01:56:39;;;;;;;12.55;8.48;;;;;;;12.88;100.00;96214.22;1038722;28;20025;-74
2023/09/15 01:57:10;;;;;;;14.35;8.85;;;;;;;12.90;100.00;96213.97;1042843;28;20385;-75
2023/09/15 01:57:40;;;;;;;12.43;8.05;;;;;;;12.88;100.00;96210.81;1042680;28;20017;-75
2023/09/15 01:58:11;;;;;;;11.55;8.05;;;;;;;12.86;100.00;96208.44;1038576;28;20013;-75
2023/09/15 01:58:41;;;;;;;13.82;7.70;;;;;;;12.90;100.00;96213.97;1038736;28;20029;-76
2023/09/15 01:59:12;;;;;;;11.23;7.97;;;;;;;12.88;100.00;96211.59;1034544;28;20120;-74
2023/09/15 01:59:43;;;;;;;13.68;8.90;;;;;;;12.89;100.00;96213.16;1036901;28;20029;-74
2023/09/15 02:00:14;;;;;;;12.75;8.23;;;;;;;12.74;100.00;96189.47;1038126;28;20057;-75
2023/09/15 02:00:44;;;;;;;15.00;8.38;;;;;;;12.85;100.00;96206.84;1034571;28;20676;-76
2023/09/15 02:01:15;;;;;;;13.32;8.32;;;;;;;12.89;100.00;96209.75;1038646;28;20057;-76
2023/09/15 02:01:46;;;;;;;15.02;8.32;;;;;;;12.90;100.00;96212.09;1038450;28;20030;-74
2023/09/15 02:02:16;;;;;;;13.25;8.90;;;;;;;12.89;100.00;96213.16;1030570;28;20513;-76
2023/09/15 02:02:47;;;;;;;14.45;8.40;;;;;;;12.89;100.00;96210.53;1042622;28;20044;-76
2023/09/15 02:03:17;;;;;;;15.27;8.10;;;;;;;12.84;100.00;96200.00;1046977;28;20016;-73
2023/09/15 02:03:48;;;;;;;13.00;8.57;;;;;;;12.87;100.00;96206.59;1030482;28;20069;-75
2023/09/15 02:04:19;;;;;;;13.23;8.77;;;;;;;12.85;100.00;96204.22;1034544;28;20108;-75
2023/09/15 02:04:49;;;;;;;13.73;8.38;;;;;;;12.84;100.00;96210.53;1033246;28;20022;-76
2023/09/15 02:05:23;;;;;;;13.00;8.00;;;;;;;12.87;100.00;96210.00;1034660;28;20699;-75
2023/09/15 02:05:55;;;;;;;13.50;8.60;;;;;;;12.87;100.00;96207.38;1030458;28;20045;-74
2023/09/15 02:06:26;;;;;;;12.30;8.93;;;;;;;12.85;100.00;96209.50;1038423;28;20032;-76
2023/09/15 02:06:57;;;;;;;14.25;8.20;;;;;;;12.85;100.00;96212.13;1038619;28;20056;-73
2023/09/15 02:07:27;;;;;;;12.40;8.07;;;;;;;12.85;100.00;96211.34;1038569;28;20022;-75
2023/09/15 02:07:58;;;;;;;13.50;8.45;;;;;;;12.85;100.00;96209.50;1042579;28;20056;-75
2023/09/15 02:08:28;;;;;;;13.75;8.07;;;;;;;12.84;100.00;96205.25;1041218;28;20025;-74
2023/09/15 02:08:59;;;;;;;12.02;8.13;;;;;;;12.86;100.00;96205.78;1038662;28;20026;-75
2023/09/15 02:09:29;;;;;;;12.43;8.10;;;;;;;12.88;100.00;96211.59;1034479;28;20432;-75
2023/09/15 02:10:00;;;;;;;12.18;8.02;;;;;;;12.85;100.00;96201.59;1033570;28;20160;-75
2023/09/15 02:10:30;;;;;;;13.48;8.43;;;;;;;12.86;100.00;96205.78;1038582;28;20057;-75
2023/09/15 02:11:01;;;;;;;11.65;7.97;;;;;;;12.79;100.00;96197.38;1034599;28;20686;-75
2023/09/15 02:11:31;;;;;;;10.65;7.25;;;;;;;12.79;100.00;96194.75;1040287;28;20303;-74
2023/09/15 02:12:02;;;;;;;11.00;7.45;;;;;;;12.84;100.00;96205.25;1042449;28;20116;-76
2023/09/15 02:12:32;;;;;;;12.55;8.45;;;;;;;12.84;100.00;96200.00;1038618;28;20021;-75
2023/09/15 02:13:03;;;;;;;13.63;8.55;;;;;;;12.85;100.00;96204.22;1030323;28;20049;-75
2023/09/15 02:13:36;;;;;;;11.68;7.70;;;;;;;12.85;100.00;96204.22;1034556;28;20607;-75
2023/09/15 02:14:06;;;;;;;11.70;7.97;;;;;;;12.85;100.00;96206.06;1030377;28;20467;-74
2023/09/15 02:14:37;;;;;;;10.70;7.90;;;;;;;12.85;100.00;96200.81;1038654;28;20057;-74
2023/09/15 02:15:08;;;;;;;12.77;8.60;;;;;;;12.86;100.00;96203.16;1037830;28;20437;-74
2023/09/15 02:15:40;;;;;;;11.77;8.10;;;;;;;12.84;100.00;96205.25;1030499;28;20473;-74
2023/09/15 02:16:11;;;;;;;11.68;7.35;;;;;;;12.84;100.00;96199.22;1034307;28;20062;-75
2023/09/15 02:16:42;;;;;;;12.75;8.15;;;;;;;12.79;100.00;96193.97;1033096;28;20019;-74
2023/09/15 02:17:15;;;;;;;14.00;8.40;;;;;;;12.86;100.00;96197.91;1030751;28;20490;-76
2023/09/15 02:17:45;;;;;;;12.40;7.43;;;;;;;12.86;100.00;96197.91;1031236;28;20528;-74
2023/09/15 02:18:16;;;;;;;12.05;8.15;;;;;;;12.85;100.00;96201.59;1035500;28;20044;-74
2023/09/15 02:18:47;;;;;;;11.23;7.63;;;;;;;12.83;100.00;96201.06;1043425;28;20032;-74
2023/09/15 02:19:18;;;;;;;12.85;8.35;;;;;;;12.83;100.00;96198.41;1042967;28;20017;-75
2023/09/15 02:19:49;;;;;;;11.25;7.60;;;;;;;12.85;100.00;96209.50;1046179;28;20155;-74
2023/09/15 02:20:20;;;;;;;12.90;8.05;;;;;;;12.84;100.00;96200.00;1038564;28;20099;-75
2023/09/15 02:20:57;;;;;;;12.48;8.02;;;;;;;12.86;100.00;96200.53;1034981;28;20505;-75
2023/09/15 02:21:27;;;;;;;10.13;7.68;;;;;;;12.83;100.00;96195.78;1034030;28;20551;-72
2023/09/15 02:21:58;;;;;;;12.15;8.05;;;;;;;12.83;100.00;96197.63;1033791;28;20024;-76
2023/09/15 02:22:28;;;;;;;10.68;7.40;;;;;;;12.86;100.00;96200.53;1030747;28;20025;-75
2023/09/15 02:23:03;;;;;;;11.52;7.60;;;;;;;12.85;100.00;96201.59;1030087;28;20466;-73
2023/09/15 02:23:34;;;;;;;12.43;7.88;;;;;;;12.83;100.00;96208.97;1031381;28;20030;-75
2023/09/15 02:24:05;;;;;;;11.90;8.23;;;;;;;12.82;100.00;96203.97;1040023;28;20021;-74
2023/09/15 02:24:35;;;;;;;13.18;7.38;;;;;;;12.84;100.00;96201.84;1039194;28;20059;-74
2023/09/15 02:25:06;;;;;;;12.80;7.55;;;;;;;12.83;100.00;96202.91;1037300;28;20026;-73
2023/09/15 02:25:36;;;;;;;13.93;8.65;;;;;;;12.81;100.00;96205.81;1047437;28;20090;-74
2023/09/15 02:26:08;;;;;;;12.60;8.40;;;;;;;12.79;100.00;96207.91;1047475;28;20028;-74
2023/09/15 02:26:39;;;;;;;10.35;7.70;;;;;;;12.81;100.00;96199.72;1043565;28;20028;-75
2023/09/15 02:27:09;;;;;;;11.32;7.88;;;;;;;12.81;100.00;96205.00;1043113;28;20024;-74
2023/09/15 02:27:40;;;;;;;12.60;8.48;;;;;;;12.79;100.00;96201.84;1043424;28;20021;-73
2023/09/15 02:28:10;;;;;;;11.27;7.28;;;;;;;12.78;100.00;96197.66;1035457;28;20033;-75
2023/09/15 02:28:41;;;;;;;11.50;7.85;;;;;;;12.74;100.00;96197.38;1042161;28;20025;-74
2023/09/15 02:29:11;;;;;;;11.38;7.80;;;;;;;12.72;100.00;96191.59;1035173;28;20040;-74